Pangburn, Arkansas
Current Conditions -  °F | °C
As of 3:56 PM on Thursday 23 Oct 2014 (Local Time) from KSRC Reporting Station
Clear Clear  
Wind Chill: 62°   Ceiling: Unl
Heat Index: 62°   Visibility: 10mi
Dew Point: 45°   Wind: 0mph
Humidity: 53%   Direction: NA
Pressure: 30.16"   Gusts: NA
Location:  35.43°N, 91.84°W
Report Text: KSRC 232056Z AUTO 00000KT 10SM CLR 17/07 A3016 RMK AO2 SLP221 T01670072 56019 TSNO
Loading
Personal Weather Stations






























Interactive Weather Map
Tropical Storm Tracking
New forecast layout! Learn more

10-Day Weather Forecast

Advertisements
Track Severe Weather on mobile